sensor_id;sensor_type;location;lat;lon;timestamp;pressure;altitude;pressure_sealevel;temperature;humidity
9969;BME280;5025;48.890;9.278;2023-05-11T00:00:29;98595.94;;;13.23;73.22
9969;BME280;5025;48.890;9.278;2023-05-11T00:02:55;98595.41;;;13.21;73.19
9969;BME280;5025;48.890;9.278;2023-05-11T00:05:21;98598.09;;;13.21;73.39
9969;BME280;5025;48.890;9.278;2023-05-11T00:07:46;98586.44;;;13.20;73.29
9969;BME280;5025;48.890;9.278;2023-05-11T00:10:11;98587.75;;;13.18;73.61
9969;BME280;5025;48.890;9.278;2023-05-11T00:12:36;98583.16;;;13.18;73.54
9969;BME280;5025;48.890;9.278;2023-05-11T00:15:02;98586.13;;;13.17;73.80
9969;BME280;5025;48.890;9.278;2023-05-11T00:17:27;98583.16;;;13.18;73.75
9969;BME280;5025;48.890;9.278;2023-05-11T00:19:52;98585.06;;;13.18;73.84
9969;BME280;5025;48.890;9.278;2023-05-11T00:22:18;98580.72;;;13.17;73.80
9969;BME280;5025;48.890;9.278;2023-05-11T00:24:43;98581.78;;;13.16;73.97
9969;BME280;5025;48.890;9.278;2023-05-11T00:27:08;98583.69;;;13.15;73.83
9969;BME280;5025;48.890;9.278;2023-05-11T00:29:34;98583.09;;;13.13;73.92
9969;BME280;5025;48.890;9.278;2023-05-11T00:31:59;98581.72;;;13.11;74.00
9969;BME280;5025;48.890;9.278;2023-05-11T00:34:24;98581.97;;;13.09;74.19
9969;BME280;5025;48.890;9.278;2023-05-11T00:36:50;98578.41;;;13.08;74.12
9969;BME280;5025;48.890;9.278;2023-05-11T00:39:16;98574.34;;;13.06;74.14
9969;BME280;5025;48.890;9.278;2023-05-11T00:41:42;98578.09;;;13.05;74.10
9969;BME280;5025;48.890;9.278;2023-05-11T00:44:07;98572.63;;;13.00;74.07
9969;BME280;5025;48.890;9.278;2023-05-11T00:46:32;98577.44;;;12.98;74.20
9969;BME280;5025;48.890;9.278;2023-05-11T00:48:58;98577.13;;;12.94;73.88
9969;BME280;5025;48.890;9.278;2023-05-11T00:51:23;98575.50;;;12.93;74.46
9969;BME280;5025;48.890;9.278;2023-05-11T00:53:49;98576.56;;;12.92;74.44
9969;BME280;5025;48.890;9.278;2023-05-11T00:56:14;98566.78;;;12.91;74.61
9969;BME280;5025;48.890;9.278;2023-05-11T00:58:40;98572.22;;;12.91;74.76
9969;BME280;5025;48.890;9.278;2023-05-11T01:01:06;98574.13;;;12.90;74.70
9969;BME280;5025;48.890;9.278;2023-05-11T01:03:32;98568.59;;;12.85;74.94
9969;BME280;5025;48.890;9.278;2023-05-11T01:06:30;98567.97;;;12.78;74.99
9969;BME280;5025;48.890;9.278;2023-05-11T01:09:07;98574.03;;;12.68;75.37
9969;BME280;5025;48.890;9.278;2023-05-11T01:11:42;98570.22;;;12.64;75.74
9969;BME280;5025;48.890;9.278;2023-05-11T01:14:26;98574.78;;;12.64;76.08
9969;BME280;5025;48.890;9.278;2023-05-11T01:16:58;98581.53;;;12.61;76.29
9969;BME280;5025;48.890;9.278;2023-05-11T01:19:46;98584.25;;;12.61;76.57
9969;BME280;5025;48.890;9.278;2023-05-11T01:22:30;98579.63;;;12.62;76.59
9969;BME280;5025;48.890;9.278;2023-05-11T01:25:05;98579.88;;;12.60;76.75
9969;BME280;5025;48.890;9.278;2023-05-11T01:27:47;98567.41;;;12.59;77.03
9969;BME280;5025;48.890;9.278;2023-05-11T01:30:47;98575.53;;;12.59;77.41
9969;BME280;5025;48.890;9.278;2023-05-11T01:33:13;98578.22;;;12.59;77.52
9969;BME280;5025;48.890;9.278;2023-05-11T01:35:43;98571.19;;;12.58;77.70
9969;BME280;5025;48.890;9.278;2023-05-11T01:38:12;98568.97;;;12.55;77.96
9969;BME280;5025;48.890;9.278;2023-05-11T01:40:38;98566.53;;;12.53;78.30
9969;BME280;5025;48.890;9.278;2023-05-11T01:43:11;98565.19;;;12.56;78.17
9969;BME280;5025;48.890;9.278;2023-05-11T01:45:40;98572.00;;;12.59;78.11
9969;BME280;5025;48.890;9.278;2023-05-11T01:48:10;98568.50;;;12.58;78.10
9969;BME280;5025;48.890;9.278;2023-05-11T01:50:38;98572.56;;;12.61;78.14
9969;BME280;5025;48.890;9.278;2023-05-11T01:53:04;98571.50;;;12.62;78.17
9969;BME280;5025;48.890;9.278;2023-05-11T01:55:31;98568.56;;;12.63;77.88
9969;BME280;5025;48.890;9.278;2023-05-11T01:57:59;98573.97;;;12.63;78.01
9969;BME280;5025;48.890;9.278;2023-05-11T02:00:25;98575.03;;;12.62;78.17
9969;BME280;5025;48.890;9.278;2023-05-11T02:02:53;98569.63;;;12.62;78.11
9969;BME280;5025;48.890;9.278;2023-05-11T02:05:22;98565.53;;;12.60;78.31
9969;BME280;5025;48.890;9.278;2023-05-11T02:07:50;98568.00;;;12.61;78.13
9969;BME280;5025;48.890;9.278;2023-05-11T02:10:16;98569.88;;;12.61;78.20
9969;BME280;5025;48.890;9.278;2023-05-11T02:12:43;98576.69;;;12.63;78.19
9969;BME280;5025;48.890;9.278;2023-05-11T02:15:09;98576.69;;;12.63;78.37
9969;BME280;5025;48.890;9.278;2023-05-11T02:17:37;98572.31;;;12.62;78.34
9969;BME280;5025;48.890;9.278;2023-05-11T02:20:04;98580.19;;;12.64;78.53
9969;BME280;5025;48.890;9.278;2023-05-11T02:22:32;98583.16;;;12.62;78.34
9969;BME280;5025;48.890;9.278;2023-05-11T02:24:57;98587.53;;;12.63;78.58
9969;BME280;5025;48.890;9.278;2023-05-11T02:27:23;98588.34;;;12.64;78.58
9969;BME280;5025;48.890;9.278;2023-05-11T02:29:48;98583.75;;;12.64;78.53
9969;BME280;5025;48.890;9.278;2023-05-11T02:32:17;98585.38;;;12.65;78.65
9969;BME280;5025;48.890;9.278;2023-05-11T02:34:48;98574.53;;;12.65;78.65
9969;BME280;5025;48.890;9.278;2023-05-11T02:37:23;98576.69;;;12.63;78.81
9969;BME280;5025;48.890;9.278;2023-05-11T02:39:53;98574.53;;;12.65;78.82
9969;BME280;5025;48.890;9.278;2023-05-11T02:42:21;98576.44;;;12.65;79.01
9969;BME280;5025;48.890;9.278;2023-05-11T02:45:08;98579.97;;;12.65;78.96
9969;BME280;5025;48.890;9.278;2023-05-11T02:47:38;98572.91;;;12.64;79.01
9969;BME280;5025;48.890;9.278;2023-05-11T02:50:07;98578.34;;;12.64;79.12
9969;BME280;5025;48.890;9.278;2023-05-11T02:52:33;98570.69;;;12.61;79.16
9969;BME280;5025;48.890;9.278;2023-05-11T02:55:01;98569.06;;;12.60;79.18
9969;BME280;5025;48.890;9.278;2023-05-11T02:57:27;98571.75;;;12.60;79.03
9969;BME280;5025;48.890;9.278;2023-05-11T02:59:52;98572.56;;;12.61;79.04
9969;BME280;5025;48.890;9.278;2023-05-11T03:02:17;98567.41;;;12.59;79.09
9969;BME280;5025;48.890;9.278;2023-05-11T03:04:43;98567.66;;;12.58;79.04
9969;BME280;5025;48.890;9.278;2023-05-11T03:07:08;98567.34;;;12.54;79.21
9969;BME280;5025;48.890;9.278;2023-05-11T03:09:34;98561.84;;;12.49;79.18
9969;BME280;5025;48.890;9.278;2023-05-11T03:12:01;98572.06;;;12.47;79.23
9969;BME280;5025;48.890;9.278;2023-05-11T03:14:27;98562.34;;;12.46;79.48
9969;BME280;5025;48.890;9.278;2023-05-11T03:16:54;98562.59;;;12.44;79.70
9969;BME280;5025;48.890;9.278;2023-05-11T03:19:20;98562.81;;;12.43;79.87
9969;BME280;5025;48.890;9.278;2023-05-11T03:21:46;98561.75;;;12.44;79.89
9969;BME280;5025;48.890;9.278;2023-05-11T03:24:14;98557.72;;;12.46;80.00
9969;BME280;5025;48.890;9.278;2023-05-11T03:26:42;98563.97;;;12.47;80.07
9969;BME280;5025;48.890;9.278;2023-05-11T03:29:08;98564.78;;;12.47;80.17
9969;BME280;5025;48.890;9.278;2023-05-11T03:31:35;98561.50;;;12.45;80.07
9969;BME280;5025;48.890;9.278;2023-05-11T03:34:00;98556.06;;;12.45;80.11
9969;BME280;5025;48.890;9.278;2023-05-11T03:36:26;98557.97;;;12.45;80.39
9969;BME280;5025;48.890;9.278;2023-05-11T03:38:53;98561.97;;;12.42;80.75
9969;BME280;5025;48.890;9.278;2023-05-11T03:41:21;98553.53;;;12.38;80.75
9969;BME280;5025;48.890;9.278;2023-05-11T03:43:50;98562.72;;;12.37;80.88
9969;BME280;5025;48.890;9.278;2023-05-11T03:46:18;98557.81;;;12.34;80.85
9969;BME280;5025;48.890;9.278;2023-05-11T03:48:44;98561.34;;;12.35;80.93
9969;BME280;5025;48.890;9.278;2023-05-11T03:51:10;98554.03;;;12.35;81.00
9969;BME280;5025;48.890;9.278;2023-05-11T03:53:37;98550.53;;;12.35;80.75
9969;BME280;5025;48.890;9.278;2023-05-11T03:56:03;98550.75;;;12.33;80.91
9969;BME280;5025;48.890;9.278;2023-05-11T03:58:29;98553.38;;;12.28;80.90
9969;BME280;5025;48.890;9.278;2023-05-11T04:00:54;98555.50;;;12.26;81.10
9969;BME280;5025;48.890;9.278;2023-05-11T04:03:20;98552.56;;;12.28;80.92
9969;BME280;5025;48.890;9.278;2023-05-11T04:05:45;98557.22;;;12.32;80.84
9969;BME280;5025;48.890;9.278;2023-05-11T04:08:11;98557.56;;;12.36;80.77
9969;BME280;5025;48.890;9.278;2023-05-11T04:10:36;98556.50;;;12.37;80.82
9969;BME280;5025;48.890;9.278;2023-05-11T04:13:02;98552.72;;;12.38;80.66
9969;BME280;5025;48.890;9.278;2023-05-11T04:15:28;98554.34;;;12.39;80.79
9969;BME280;5025;48.890;9.278;2023-05-11T04:17:54;98548.94;;;12.39;80.72
9969;BME280;5025;48.890;9.278;2023-05-11T04:20:19;98557.31;;;12.37;80.80
9969;BME280;5025;48.890;9.278;2023-05-11T04:22:44;98550.75;;;12.33;80.82
9969;BME280;5025;48.890;9.278;2023-05-11T04:25:09;98557.00;;;12.34;80.81
9969;BME280;5025;48.890;9.278;2023-05-11T04:27:35;98549.69;;;12.34;80.75
9969;BME280;5025;48.890;9.278;2023-05-11T04:30:01;98550.75;;;12.33;80.78
9969;BME280;5025;48.890;9.278;2023-05-11T04:32:26;98549.41;;;12.19;80.80
9969;BME280;5025;48.890;9.278;2023-05-11T04:34:52;98550.03;;;12.21;80.77
9969;BME280;5025;48.890;9.278;2023-05-11T04:37:17;98547.38;;;12.26;80.78
9969;BME280;5025;48.890;9.278;2023-05-11T04:39:42;98543.38;;;12.29;80.57
9969;BME280;5025;48.890;9.278;2023-05-11T04:42:08;98552.88;;;12.31;80.51
9969;BME280;5025;48.890;9.278;2023-05-11T04:44:33;98548.06;;;12.33;80.43
9969;BME280;5025;48.890;9.278;2023-05-11T04:46:58;98553.22;;;12.35;80.32
9969;BME280;5025;48.890;9.278;2023-05-11T04:49:23;98549.69;;;12.34;80.30
9969;BME280;5025;48.890;9.278;2023-05-11T04:51:49;98553.22;;;12.35;80.49
9969;BME280;5025;48.890;9.278;2023-05-11T04:54:14;98553.53;;;12.38;80.45
9969;BME280;5025;48.890;9.278;2023-05-11T04:56:40;98555.19;;;12.40;80.34
9969;BME280;5025;48.890;9.278;2023-05-11T04:59:06;98552.72;;;12.38;80.45
9969;BME280;5025;48.890;9.278;2023-05-11T05:01:31;98549.78;;;12.40;80.45
9969;BME280;5025;48.890;9.278;2023-05-11T05:03:57;98557.66;;;12.41;80.36
9969;BME280;5025;48.890;9.278;2023-05-11T05:06:22;98557.97;;;12.45;80.34
9969;BME280;5025;48.890;9.278;2023-05-11T05:08:47;98558.22;;;12.43;80.49
9969;BME280;5025;48.890;9.278;2023-05-11T05:11:13;98560.94;;;12.43;80.31
9969;BME280;5025;48.890;9.278;2023-05-11T05:13:38;98562.34;;;12.46;80.46
9969;BME280;5025;48.890;9.278;2023-05-11T05:16:03;98559.63;;;12.46;80.34
9969;BME280;5025;48.890;9.278;2023-05-11T05:18:29;98562.91;;;12.48;80.40
9969;BME280;5025;48.890;9.278;2023-05-11T05:20:54;98562.09;;;12.47;80.43
9969;BME280;5025;48.890;9.278;2023-05-11T05:23:19;98566.16;;;12.50;80.27
9969;BME280;5025;48.890;9.278;2023-05-11T05:25:45;98563.88;;;12.42;80.45
9969;BME280;5025;48.890;9.278;2023-05-11T05:28:10;98567.16;;;12.44;80.62
9969;BME280;5025;48.890;9.278;2023-05-11T05:30:35;98565.28;;;12.44;80.27
9969;BME280;5025;48.890;9.278;2023-05-11T05:33:01;98572.56;;;12.44;80.36
9969;BME280;5025;48.890;9.278;2023-05-11T05:35:26;98569.88;;;12.44;80.26
9969;BME280;5025;48.890;9.278;2023-05-11T05:37:52;98573.97;;;12.46;80.17
9969;BME280;5025;48.890;9.278;2023-05-11T05:40:17;98569.38;;;12.47;80.11
9969;BME280;5025;48.890;9.278;2023-05-11T05:42:42;98576.19;;;12.49;80.05
9969;BME280;5025;48.890;9.278;2023-05-11T05:45:08;98575.38;;;12.49;79.93
9969;BME280;5025;48.890;9.278;2023-05-11T05:47:33;98576.19;;;12.49;79.92
9969;BME280;5025;48.890;9.278;2023-05-11T05:49:59;98584.06;;;12.51;79.97
9969;BME280;5025;48.890;9.278;2023-05-11T05:52:24;98583.59;;;12.54;79.75
9969;BME280;5025;48.890;9.278;2023-05-11T05:54:49;98583.09;;;12.57;79.81
9969;BME280;5025;48.890;9.278;2023-05-11T05:57:15;98582.84;;;12.59;79.81
9969;BME280;5025;48.890;9.278;2023-05-11T05:59:40;98589.66;;;12.61;79.78
9969;BME280;5025;48.890;9.278;2023-05-11T06:02:05;98587.28;;;12.65;79.71
9969;BME280;5025;48.890;9.278;2023-05-11T06:04:31;98584.31;;;12.66;79.60
9969;BME280;5025;48.890;9.278;2023-05-11T06:06:56;98588.44;;;12.69;79.72
9969;BME280;5025;48.890;9.278;2023-05-11T06:09:22;98592.50;;;12.71;79.81
9969;BME280;5025;48.890;9.278;2023-05-11T06:11:47;98598.53;;;12.73;79.76
9969;BME280;5025;48.890;9.278;2023-05-11T06:14:13;98598.03;;;12.77;79.90
9969;BME280;5025;48.890;9.278;2023-05-11T06:16:38;98596.69;;;12.79;79.93
9969;BME280;5025;48.890;9.278;2023-05-11T06:19:03;98591.03;;;12.81;80.18
9969;BME280;5025;48.890;9.278;2023-05-11T06:21:29;98592.69;;;12.82;79.96
9969;BME280;5025;48.890;9.278;2023-05-11T06:23:54;98598.66;;;12.84;79.99
9969;BME280;5025;48.890;9.278;2023-05-11T06:26:19;98594.09;;;12.84;79.99
9969;BME280;5025;48.890;9.278;2023-05-11T06:28:48;98607.38;;;12.86;80.17
9969;BME280;5025;48.890;9.278;2023-05-11T06:31:14;98583.56;;;12.88;80.04
9969;BME280;5025;48.890;9.278;2023-05-11T06:33:39;98588.97;;;12.88;80.07
9969;BME280;5025;48.890;9.278;2023-05-11T06:36:05;98596.03;;;12.89;80.11
9969;BME280;5025;48.890;9.278;2023-05-11T06:38:31;98598.25;;;12.92;80.04
9969;BME280;5025;48.890;9.278;2023-05-11T06:40:56;98597.41;;;12.91;80.15
9969;BME280;5025;48.890;9.278;2023-05-11T06:43:21;98593.41;;;12.94;80.18
9969;BME280;5025;48.890;9.278;2023-05-11T06:45:47;98602.28;;;12.89;80.09
9969;BME280;5025;48.890;9.278;2023-05-11T06:48:12;98597.66;;;12.90;80.09
9969;BME280;5025;48.890;9.278;2023-05-11T06:50:38;98591.75;;;12.93;80.00
9969;BME280;5025;48.890;9.278;2023-05-11T06:53:03;98588.78;;;12.95;80.33
9969;BME280;5025;48.890;9.278;2023-05-11T06:55:28;98596.63;;;12.91;80.04
9969;BME280;5025;48.890;9.278;2023-05-11T06:57:54;98598.75;;;12.89;80.31
9969;BME280;5025;48.890;9.278;2023-05-11T07:00:19;98593.25;;;12.84;80.19
9969;BME280;5025;48.890;9.278;2023-05-11T07:02:44;98599.66;;;12.78;80.41
9969;BME280;5025;48.890;9.278;2023-05-11T07:05:10;98595.38;;;12.82;79.94
9969;BME280;5025;48.890;9.278;2023-05-11T07:07:36;98594.91;;;12.85;80.21
9969;BME280;5025;48.890;9.278;2023-05-11T07:10:01;98591.63;;;12.83;80.03
9969;BME280;5025;48.890;9.278;2023-05-11T07:12:26;98600.81;;;12.82;80.11
9969;BME280;5025;48.890;9.278;2023-05-11T07:14:52;98599.16;;;12.81;80.16
9969;BME280;5025;48.890;9.278;2023-05-11T07:17:17;98601.97;;;12.86;80.27
9969;BME280;5025;48.890;9.278;2023-05-11T07:19:42;98609.00;;;12.87;80.08
9969;BME280;5025;48.890;9.278;2023-05-11T07:22:08;98602.53;;;12.88;79.98
9969;BME280;5025;48.890;9.278;2023-05-11T07:24:33;98605.81;;;12.90;80.05
9969;BME280;5025;48.890;9.278;2023-05-11T07:26:58;98611.56;;;12.94;79.96
9969;BME280;5025;48.890;9.278;2023-05-11T07:29:24;98606.72;;;12.96;80.24
9969;BME280;5025;48.890;9.278;2023-05-11T07:31:50;98602.94;;;12.97;80.11
9969;BME280;5025;48.890;9.278;2023-05-11T07:34:15;98610.81;;;12.98;80.26
9969;BME280;5025;48.890;9.278;2023-05-11T07:36:40;98611.63;;;12.99;80.36
9969;BME280;5025;48.890;9.278;2023-05-11T07:39:06;98599.72;;;13.00;80.48
9969;BME280;5025;48.890;9.278;2023-05-11T07:41:31;98595.69;;;13.02;80.46
9969;BME280;5025;48.890;9.278;2023-05-11T07:43:59;98602.75;;;13.03;80.44
9969;BME280;5025;48.890;9.278;2023-05-11T07:46:24;98606.03;;;13.05;80.58
9969;BME280;5025;48.890;9.278;2023-05-11T07:48:49;98597.88;;;13.05;80.64
9969;BME280;5025;48.890;9.278;2023-05-11T07:51:15;98604.97;;;13.06;81.02
9969;BME280;5025;48.890;9.278;2023-05-11T07:53:40;98610.94;;;13.08;80.92
9969;BME280;5025;48.890;9.278;2023-05-11T07:56:05;98612.59;;;13.09;80.82
9969;BME280;5025;48.890;9.278;2023-05-11T07:58:31;98611.94;;;13.02;81.21
9969;BME280;5025;48.890;9.278;2023-05-11T08:00:56;98615.59;;;12.91;81.48
9969;BME280;5025;48.890;9.278;2023-05-11T08:03:22;98610.72;;;12.93;81.69
9969;BME280;5025;48.890;9.278;2023-05-11T08:05:47;98605.91;;;12.95;81.58
9969;BME280;5025;48.890;9.278;2023-05-11T08:08:13;98597.28;;;12.98;81.81
9969;BME280;5025;48.890;9.278;2023-05-11T08:10:38;98604.41;;;13.04;82.02
9969;BME280;5025;48.890;9.278;2023-05-11T08:13:03;98606.03;;;13.05;82.04
9969;BME280;5025;48.890;9.278;2023-05-11T08:15:29;98604.44;;;12.87;82.29
9969;BME280;5025;48.890;9.278;2023-05-11T08:17:54;98601.81;;;12.76;83.24
9969;BME280;5025;48.890;9.278;2023-05-11T08:20:20;98605.66;;;12.80;83.04
9969;BME280;5025;48.890;9.278;2023-05-11T08:22:45;98603.78;;;12.80;82.93
9969;BME280;5025;48.890;9.278;2023-05-11T08:25:10;98608.69;;;12.83;83.02
9969;BME280;5025;48.890;9.278;2023-05-11T08:27:36;98615.50;;;12.86;83.03
9969;BME280;5025;48.890;9.278;2023-05-11T08:30:02;98611.16;;;12.85;83.24
9969;BME280;5025;48.890;9.278;2023-05-11T08:32:27;98610.72;;;12.93;82.97
9969;BME280;5025;48.890;9.278;2023-05-11T08:34:53;98609.16;;;12.97;82.86
9969;BME280;5025;48.890;9.278;2023-05-11T08:37:18;98608.59;;;12.95;83.00
9969;BME280;5025;48.890;9.278;2023-05-11T08:39:44;98608.19;;;12.86;83.67
9969;BME280;5025;48.890;9.278;2023-05-11T08:42:11;98615.34;;;12.76;84.26
9969;BME280;5025;48.890;9.278;2023-05-11T08:44:41;98616.75;;;12.78;84.57
9969;BME280;5025;48.890;9.278;2023-05-11T08:47:07;98613.13;;;12.72;84.96
9969;BME280;5025;48.890;9.278;2023-05-11T08:49:33;98608.03;;;12.76;85.34
9969;BME280;5025;48.890;9.278;2023-05-11T08:52:03;98605.56;;;12.74;85.13
9969;BME280;5025;48.890;9.278;2023-05-11T08:54:29;98608.03;;;12.76;85.36
9969;BME280;5025;48.890;9.278;2023-05-11T08:56:54;98607.94;;;12.88;85.08
9969;BME280;5025;48.890;9.278;2023-05-11T08:59:21;98611.88;;;12.97;84.77
9969;BME280;5025;48.890;9.278;2023-05-11T09:01:48;98613.91;;;13.07;84.71
9969;BME280;5025;48.890;9.278;2023-05-11T09:04:14;98611.63;;;12.99;84.58
9969;BME280;5025;48.890;9.278;2023-05-11T09:06:41;98616.06;;;12.88;84.83
9969;BME280;5025;48.890;9.278;2023-05-11T09:09:06;98614.03;;;12.78;85.28
9969;BME280;5025;48.890;9.278;2023-05-11T09:11:32;98616.25;;;12.64;85.52
9969;BME280;5025;48.890;9.278;2023-05-11T09:13:58;98619.97;;;12.58;85.96
9969;BME280;5025;48.890;9.278;2023-05-11T09:16:23;98611.00;;;12.58;85.92
9969;BME280;5025;48.890;9.278;2023-05-11T09:18:49;98611.72;;;12.53;85.60
9969;BME280;5025;48.890;9.278;2023-05-11T09:21:15;98609.00;;;12.53;85.42
9969;BME280;5025;48.890;9.278;2023-05-11T09:23:40;98614.91;;;12.50;85.77
9969;BME280;5025;48.890;9.278;2023-05-11T09:26:13;98612.72;;;12.64;85.65
9969;BME280;5025;48.890;9.278;2023-05-11T09:28:47;98613.06;;;12.67;85.39
9969;BME280;5025;48.890;9.278;2023-05-11T09:31:39;98616.00;;;12.66;85.14
9969;BME280;5025;48.890;9.278;2023-05-11T09:34:18;98614.13;;;12.83;84.95
9969;BME280;5025;48.890;9.278;2023-05-11T09:36:54;98617.72;;;12.89;84.53
9969;BME280;5025;48.890;9.278;2023-05-11T09:39:31;98622.56;;;12.53;84.55
9969;BME280;5025;48.890;9.278;2023-05-11T09:42:20;98621.00;;;12.57;85.13
9969;BME280;5025;48.890;9.278;2023-05-11T09:44:46;98613.19;;;12.44;85.20
9969;BME280;5025;48.890;9.278;2023-05-11T09:47:14;98611.81;;;12.41;85.48
9969;BME280;5025;48.890;9.278;2023-05-11T09:49:40;98611.34;;;12.44;85.59
9969;BME280;5025;48.890;9.278;2023-05-11T09:52:08;98612.47;;;12.48;85.96
9969;BME280;5025;48.890;9.278;2023-05-11T09:54:42;98609.19;;;12.63;86.19
9969;BME280;5025;48.890;9.278;2023-05-11T09:57:28;98606.22;;;12.65;86.08
9969;BME280;5025;48.890;9.278;2023-05-11T09:59:55;98609.69;;;12.77;86.14
9969;BME280;5025;48.890;9.278;2023-05-11T10:02:28;98612.16;;;12.79;86.34
9969;BME280;5025;48.890;9.278;2023-05-11T10:04:56;98618.22;;;12.86;86.22
9969;BME280;5025;48.890;9.278;2023-05-11T10:09:48;98608.38;;;12.80;86.13
9969;BME280;5025;48.890;9.278;2023-05-11T10:12:14;98614.59;;;12.80;86.42
9969;BME280;5025;48.890;9.278;2023-05-11T10:14:40;98617.56;;;12.79;86.52
9969;BME280;5025;48.890;9.278;2023-05-11T10:17:05;98618.59;;;12.95;86.15
9969;BME280;5025;48.890;9.278;2023-05-11T10:19:31;98606.63;;;13.07;85.77
9969;BME280;5025;48.890;9.278;2023-05-11T10:21:58;98607.84;;;13.17;85.53
9969;BME280;5025;48.890;9.278;2023-05-11T10:24:24;98611.59;;;13.16;85.33
9969;BME280;5025;48.890;9.278;2023-05-11T10:26:51;98613.66;;;13.08;85.56
9969;BME280;5025;48.890;9.278;2023-05-11T10:29:18;98604.22;;;13.11;85.74
9969;BME280;5025;48.890;9.278;2023-05-11T10:31:44;98611.63;;;12.99;86.28
9969;BME280;5025;48.890;9.278;2023-05-11T10:34:10;98606.13;;;13.11;86.16
9969;BME280;5025;48.890;9.278;2023-05-11T10:36:36;98602.81;;;13.08;86.13
9969;BME280;5025;48.890;9.278;2023-05-11T10:39:01;98600.78;;;12.99;86.37
9969;BME280;5025;48.890;9.278;2023-05-11T10:41:40;98597.88;;;13.05;86.70
9969;BME280;5025;48.890;9.278;2023-05-11T10:47:18;98594.06;;;13.01;86.62
9969;BME280;5025;48.890;9.278;2023-05-11T10:50:12;98597.31;;;13.03;87.05
9969;BME280;5025;48.890;9.278;2023-05-11T10:52:54;98599.59;;;13.12;87.05
9969;BME280;5025;48.890;9.278;2023-05-11T10:58:42;98599.16;;;13.20;86.73
9969;BME280;5025;48.890;9.278;2023-05-11T11:01:39;98591.94;;;13.25;86.57
9969;BME280;5025;48.890;9.278;2023-05-11T11:04:07;98589.69;;;13.39;86.49
9969;BME280;5025;48.890;9.278;2023-05-11T11:06:35;98593.31;;;13.45;85.99
9969;BME280;5025;48.890;9.278;2023-05-11T11:09:03;98586.53;;;13.48;86.12
9969;BME280;5025;48.890;9.278;2023-05-11T11:14:01;98594.75;;;13.53;85.51
9969;BME280;5025;48.890;9.278;2023-05-11T11:16:29;98588.63;;;13.62;85.40
9969;BME280;5025;48.890;9.278;2023-05-11T11:21:55;98592.28;;;13.73;84.85
9969;BME280;5025;48.890;9.278;2023-05-11T11:27:01;98590.44;;;13.35;84.49
9969;BME280;5025;48.890;9.278;2023-05-11T11:29:28;98582.19;;;13.47;84.73
9969;BME280;5025;48.890;9.278;2023-05-11T11:31:54;98585.22;;;13.50;83.98
9969;BME280;5025;48.890;9.278;2023-05-11T11:39:22;98588.75;;;13.51;84.45
9969;BME280;5025;48.890;9.278;2023-05-11T11:42:03;98583.50;;;13.66;84.14
9969;BME280;5025;48.890;9.278;2023-05-11T11:44:29;98586.03;;;13.73;83.90
9969;BME280;5025;48.890;9.278;2023-05-11T11:49:39;98584.84;;;13.91;83.06
9969;BME280;5025;48.890;9.278;2023-05-11T11:52:09;98583.50;;;13.88;82.77
9969;BME280;5025;48.890;9.278;2023-05-11T11:54:36;98573.84;;;13.75;81.96
9969;BME280;5025;48.890;9.278;2023-05-11T11:57:02;98580.28;;;13.69;80.79
9969;BME280;5025;48.890;9.278;2023-05-11T11:59:29;98578.78;;;13.56;79.98
9969;BME280;5025;48.890;9.278;2023-05-11T12:01:55;98581.63;;;13.67;79.86
9969;BME280;5025;48.890;9.278;2023-05-11T12:04:37;98579.22;;;13.70;79.95
9969;BME280;5025;48.890;9.278;2023-05-11T12:07:06;98584.59;;;13.65;80.44
9969;BME280;5025;48.890;9.278;2023-05-11T12:09:32;98582.94;;;13.64;79.97
9969;BME280;5025;48.890;9.278;2023-05-11T12:11:59;98576.63;;;13.80;79.69
9969;BME280;5025;48.890;9.278;2023-05-11T12:14:25;98573.16;;;13.85;79.46
9969;BME280;5025;48.890;9.278;2023-05-11T12:17:00;98573.22;;;13.95;79.34
9969;BME280;5025;48.890;9.278;2023-05-11T12:19:26;98569.34;;;13.86;78.53
9969;BME280;5025;48.890;9.278;2023-05-11T12:21:52;98559.88;;;13.89;77.89
9969;BME280;5025;48.890;9.278;2023-05-11T12:24:17;98568.16;;;14.04;77.92
9969;BME280;5025;48.890;9.278;2023-05-11T12:26:42;98563.88;;;14.08;77.46
9969;BME280;5025;48.890;9.278;2023-05-11T12:29:10;98558.00;;;14.22;77.19
9969;BME280;5025;48.890;9.278;2023-05-11T12:31:45;98559.91;;;14.21;76.40
9969;BME280;5025;48.890;9.278;2023-05-11T12:34:15;98566.34;;;14.10;75.39
9969;BME280;5025;48.890;9.278;2023-05-11T12:36:43;98566.13;;;14.16;75.38
9969;BME280;5025;48.890;9.278;2023-05-11T12:39:19;98557.97;;;14.16;75.25
9969;BME280;5025;48.890;9.278;2023-05-11T12:41:46;98555.81;;;14.19;75.15
9969;BME280;5025;48.890;9.278;2023-05-11T12:44:14;98547.59;;;14.08;74.17
9969;BME280;5025;48.890;9.278;2023-05-11T12:46:39;98553.56;;;14.10;74.02
9969;BME280;5025;48.890;9.278;2023-05-11T12:49:05;98544.28;;;14.06;74.34
9969;BME280;5025;48.890;9.278;2023-05-11T12:51:50;98542.75;;;14.15;74.46
9969;BME280;5025;48.890;9.278;2023-05-11T12:56:51;98546.19;;;14.38;74.84
9969;BME280;5025;48.890;9.278;2023-05-11T12:59:32;98539.22;;;14.47;74.92
9969;BME280;5025;48.890;9.278;2023-05-11T13:02:08;98536.50;;;14.47;74.59
9969;BME280;5025;48.890;9.278;2023-05-11T13:04:34;98531.69;;;14.60;74.39
9969;BME280;5025;48.890;9.278;2023-05-11T13:06:59;98532.88;;;14.69;74.09
9969;BME280;5025;48.890;9.278;2023-05-11T13:09:25;98522.91;;;14.85;73.93
9969;BME280;5025;48.890;9.278;2023-05-11T13:12:14;98525.97;;;14.99;73.58
9969;BME280;5025;48.890;9.278;2023-05-11T13:14:47;98521.59;;;14.98;72.89
9969;BME280;5025;48.890;9.278;2023-05-11T13:17:27;98530.38;;;15.10;72.87
9969;BME280;5025;48.890;9.278;2023-05-11T13:19:54;98517.91;;;15.19;72.67
9969;BME280;5025;48.890;9.278;2023-05-11T13:22:19;98514.66;;;15.22;72.43
9969;BME280;5025;48.890;9.278;2023-05-11T13:24:44;98512.16;;;15.11;69.94
9969;BME280;5025;48.890;9.278;2023-05-11T13:27:09;98507.00;;;15.19;70.01
9969;BME280;5025;48.890;9.278;2023-05-11T13:29:35;98502.75;;;15.34;69.68
9969;BME280;5025;48.890;9.278;2023-05-11T13:32:00;98506.31;;;15.45;69.56
9969;BME280;5025;48.890;9.278;2023-05-11T13:34:25;98503.06;;;15.53;69.28
9969;BME280;5025;48.890;9.278;2023-05-11T13:36:50;98503.34;;;15.62;69.07
9969;BME280;5025;48.890;9.278;2023-05-11T13:39:16;98502.03;;;15.74;68.96
9969;BME280;5025;48.890;9.278;2023-05-11T13:41:41;98502.34;;;15.88;68.66
9969;BME280;5025;48.890;9.278;2023-05-11T13:44:06;98496.34;;;16.02;68.32
9969;BME280;5025;48.890;9.278;2023-05-11T13:46:32;98492.81;;;16.11;67.89
9969;BME280;5025;48.890;9.278;2023-05-11T13:48:57;98499.63;;;16.24;67.61
9969;BME280;5025;48.890;9.278;2023-05-11T13:51:24;98494.44;;;16.38;67.19